sensor_id;sensor_type;location;lat;lon;timestamp;temperature;humidity
43987;DHT22;29650;47.378;8.300;2023-05-10T00:01:15;14.70;99.90
43987;DHT22;29650;47.378;8.300;2023-05-10T00:03:42;14.60;99.90
43987;DHT22;29650;47.378;8.300;2023-05-10T00:06:09;14.30;99.90
43987;DHT22;29650;47.378;8.300;2023-05-10T00:08:36;14.30;99.90
43987;DHT22;29650;47.378;8.300;2023-05-10T00:11:03;14.20;99.90
43987;DHT22;29650;47.378;8.300;2023-05-10T00:13:31;14.20;99.90
43987;DHT22;29650;47.378;8.300;2023-05-10T00:15:59;14.20;99.90
43987;DHT22;29650;47.378;8.300;2023-05-10T00:18:26;14.40;99.90
43987;DHT22;29650;47.378;8.300;2023-05-10T00:20:53;14.30;99.90
43987;DHT22;29650;47.378;8.300;2023-05-10T00:23:20;14.40;99.90
43987;DHT22;29650;47.378;8.300;2023-05-10T00:25:47;14.60;99.90
43987;DHT22;29650;47.378;8.300;2023-05-10T00:28:14;14.70;99.90
43987;DHT22;29650;47.378;8.300;2023-05-10T00:30:41;14.60;99.90
43987;DHT22;29650;47.378;8.300;2023-05-10T00:33:09;14.60;99.90
43987;DHT22;29650;47.378;8.300;2023-05-10T00:35:37;14.40;99.90
43987;DHT22;29650;47.378;8.300;2023-05-10T00:38:04;14.30;99.90
43987;DHT22;29650;47.378;8.300;2023-05-10T00:40:31;14.40;99.90
43987;DHT22;29650;47.378;8.300;2023-05-10T00:42:58;14.30;99.90
43987;DHT22;29650;47.378;8.300;2023-05-10T00:45:26;14.40;99.90
43987;DHT22;29650;47.378;8.300;2023-05-10T00:47:53;14.40;99.90
43987;DHT22;29650;47.378;8.300;2023-05-10T00:50:23;14.60;99.90
43987;DHT22;29650;47.378;8.300;2023-05-10T00:52:51;14.60;99.90
43987;DHT22;29650;47.378;8.300;2023-05-10T00:55:18;14.70;99.90
43987;DHT22;29650;47.378;8.300;2023-05-10T00:57:45;14.60;99.90
43987;DHT22;29650;47.378;8.300;2023-05-10T01:00:13;15.40;99.90
43987;DHT22;29650;47.378;8.300;2023-05-10T01:02:44;14.30;99.90
43987;DHT22;29650;47.378;8.300;2023-05-10T01:05:11;14.30;99.90
43987;DHT22;29650;47.378;8.300;2023-05-10T01:07:40;14.40;99.90
43987;DHT22;29650;47.378;8.300;2023-05-10T01:10:08;14.30;99.90
43987;DHT22;29650;47.378;8.300;2023-05-10T01:12:38;14.30;99.90
43987;DHT22;29650;47.378;8.300;2023-05-10T01:15:07;14.40;99.90
43987;DHT22;29650;47.378;8.300;2023-05-10T01:17:35;14.30;99.90
43987;DHT22;29650;47.378;8.300;2023-05-10T01:20:04;14.40;99.90
43987;DHT22;29650;47.378;8.300;2023-05-10T01:22:49;14.40;99.90
43987;DHT22;29650;47.378;8.300;2023-05-10T01:25:35;14.40;99.90
43987;DHT22;29650;47.378;8.300;2023-05-10T01:28:45;14.30;99.90
43987;DHT22;29650;47.378;8.300;2023-05-10T01:31:33;14.30;99.90
43987;DHT22;29650;47.378;8.300;2023-05-10T01:34:08;14.20;99.90
43987;DHT22;29650;47.378;8.300;2023-05-10T01:36:42;14.30;99.90
43987;DHT22;29650;47.378;8.300;2023-05-10T01:39:15;14.20;99.90
43987;DHT22;29650;47.378;8.300;2023-05-10T01:41:48;14.30;99.90
43987;DHT22;29650;47.378;8.300;2023-05-10T01:44:20;14.20;99.90
43987;DHT22;29650;47.378;8.300;2023-05-10T01:46:55;14.10;99.90
43987;DHT22;29650;47.378;8.300;2023-05-10T01:49:30;14.30;99.90
43987;DHT22;29650;47.378;8.300;2023-05-10T01:52:03;14.30;99.90
43987;DHT22;29650;47.378;8.300;2023-05-10T01:54:31;14.30;99.90
43987;DHT22;29650;47.378;8.300;2023-05-10T01:57:03;14.40;99.90
43987;DHT22;29650;47.378;8.300;2023-05-10T01:59:34;14.50;99.90
43987;DHT22;29650;47.378;8.300;2023-05-10T02:02:05;14.50;99.90
43987;DHT22;29650;47.378;8.300;2023-05-10T02:04:35;14.40;99.90
43987;DHT22;29650;47.378;8.300;2023-05-10T02:07:04;14.30;99.90
43987;DHT22;29650;47.378;8.300;2023-05-10T02:09:33;14.30;99.90
43987;DHT22;29650;47.378;8.300;2023-05-10T02:12:02;14.40;99.90
43987;DHT22;29650;47.378;8.300;2023-05-10T02:14:35;14.30;99.90
43987;DHT22;29650;47.378;8.300;2023-05-10T02:17:04;14.20;99.90
43987;DHT22;29650;47.378;8.300;2023-05-10T02:19:32;14.20;99.90
43987;DHT22;29650;47.378;8.300;2023-05-10T02:22:01;14.30;99.90
43987;DHT22;29650;47.378;8.300;2023-05-10T02:24:28;14.10;99.90
43987;DHT22;29650;47.378;8.300;2023-05-10T02:26:56;14.10;99.90
43987;DHT22;29650;47.378;8.300;2023-05-10T02:29:24;13.80;99.90
43987;DHT22;29650;47.378;8.300;2023-05-10T02:31:54;13.80;99.90
43987;DHT22;29650;47.378;8.300;2023-05-10T02:34:22;13.90;99.90
43987;DHT22;29650;47.378;8.300;2023-05-10T02:36:51;14.00;99.90
43987;DHT22;29650;47.378;8.300;2023-05-10T02:39:21;14.10;99.90
43987;DHT22;29650;47.378;8.300;2023-05-10T02:41:49;14.10;99.90
43987;DHT22;29650;47.378;8.300;2023-05-10T02:44:19;13.90;99.90
43987;DHT22;29650;47.378;8.300;2023-05-10T02:46:47;13.80;99.90
43987;DHT22;29650;47.378;8.300;2023-05-10T02:49:14;13.90;99.90
43987;DHT22;29650;47.378;8.300;2023-05-10T02:51:45;14.00;99.90
43987;DHT22;29650;47.378;8.300;2023-05-10T02:54:20;14.00;99.90
43987;DHT22;29650;47.378;8.300;2023-05-10T02:56:55;14.00;99.90
43987;DHT22;29650;47.378;8.300;2023-05-10T02:59:23;14.10;99.90
43987;DHT22;29650;47.378;8.300;2023-05-10T03:01:50;14.00;99.90
43987;DHT22;29650;47.378;8.300;2023-05-10T03:04:17;14.10;99.90
43987;DHT22;29650;47.378;8.300;2023-05-10T03:06:45;13.90;99.90
43987;DHT22;29650;47.378;8.300;2023-05-10T03:09:12;14.00;99.90
43987;DHT22;29650;47.378;8.300;2023-05-10T03:11:56;14.00;99.90
43987;DHT22;29650;47.378;8.300;2023-05-10T03:14:39;14.00;99.90
43987;DHT22;29650;47.378;8.300;2023-05-10T03:17:15;14.00;99.90
43987;DHT22;29650;47.378;8.300;2023-05-10T03:19:47;14.00;99.90
43987;DHT22;29650;47.378;8.300;2023-05-10T03:22:24;14.00;99.90
43987;DHT22;29650;47.378;8.300;2023-05-10T03:24:53;14.10;99.90
43987;DHT22;29650;47.378;8.300;2023-05-10T03:27:26;14.10;99.90
43987;DHT22;29650;47.378;8.300;2023-05-10T03:29:55;14.00;99.90
43987;DHT22;29650;47.378;8.300;2023-05-10T03:32:22;14.00;99.90
43987;DHT22;29650;47.378;8.300;2023-05-10T03:34:49;14.10;99.90
43987;DHT22;29650;47.378;8.300;2023-05-10T03:37:16;14.00;99.90
43987;DHT22;29650;47.378;8.300;2023-05-10T03:39:43;14.00;99.90
43987;DHT22;29650;47.378;8.300;2023-05-10T03:42:11;13.80;99.90
43987;DHT22;29650;47.378;8.300;2023-05-10T03:44:40;14.00;99.90
43987;DHT22;29650;47.378;8.300;2023-05-10T03:47:07;14.00;99.90
43987;DHT22;29650;47.378;8.300;2023-05-10T03:49:34;14.00;99.90
43987;DHT22;29650;47.378;8.300;2023-05-10T03:52:01;14.00;99.90
43987;DHT22;29650;47.378;8.300;2023-05-10T03:54:28;13.90;99.90
43987;DHT22;29650;47.378;8.300;2023-05-10T03:56:55;13.90;99.90
43987;DHT22;29650;47.378;8.300;2023-05-10T03:59:22;13.80;99.90
43987;DHT22;29650;47.378;8.300;2023-05-10T04:01:50;13.90;99.90
43987;DHT22;29650;47.378;8.300;2023-05-10T04:04:17;14.00;99.90
43987;DHT22;29650;47.378;8.300;2023-05-10T04:06:46;14.00;99.90
43987;DHT22;29650;47.378;8.300;2023-05-10T04:09:13;14.00;99.90
43987;DHT22;29650;47.378;8.300;2023-05-10T04:11:40;14.00;99.90
43987;DHT22;29650;47.378;8.300;2023-05-10T04:14:07;14.00;99.90
43987;DHT22;29650;47.378;8.300;2023-05-10T04:16:34;14.00;99.90
43987;DHT22;29650;47.378;8.300;2023-05-10T04:19:03;14.00;99.90
43987;DHT22;29650;47.378;8.300;2023-05-10T04:21:30;14.00;99.90
43987;DHT22;29650;47.378;8.300;2023-05-10T04:23:57;13.80;99.90
43987;DHT22;29650;47.378;8.300;2023-05-10T04:26:24;13.90;99.90
43987;DHT22;29650;47.378;8.300;2023-05-10T04:28:51;13.90;99.90
43987;DHT22;29650;47.378;8.300;2023-05-10T04:31:18;13.90;99.90
43987;DHT22;29650;47.378;8.300;2023-05-10T04:33:45;14.00;99.90
43987;DHT22;29650;47.378;8.300;2023-05-10T04:36:13;14.00;99.90
43987;DHT22;29650;47.378;8.300;2023-05-10T04:38:40;13.90;99.90
43987;DHT22;29650;47.378;8.300;2023-05-10T04:41:09;13.90;99.90
43987;DHT22;29650;47.378;8.300;2023-05-10T04:43:38;13.90;99.90
43987;DHT22;29650;47.378;8.300;2023-05-10T04:46:05;13.90;99.90
43987;DHT22;29650;47.378;8.300;2023-05-10T04:48:35;13.90;99.90
43987;DHT22;29650;47.378;8.300;2023-05-10T04:51:02;13.90;99.90
43987;DHT22;29650;47.378;8.300;2023-05-10T04:53:31;14.00;99.90
43987;DHT22;29650;47.378;8.300;2023-05-10T04:55:58;14.00;99.90
43987;DHT22;29650;47.378;8.300;2023-05-10T04:58:25;14.00;99.90
43987;DHT22;29650;47.378;8.300;2023-05-10T05:00:52;14.00;99.90
43987;DHT22;29650;47.378;8.300;2023-05-10T05:03:19;14.00;99.90
43987;DHT22;29650;47.378;8.300;2023-05-10T05:05:47;14.00;99.90
43987;DHT22;29650;47.378;8.300;2023-05-10T05:08:14;14.00;99.90
43987;DHT22;29650;47.378;8.300;2023-05-10T05:10:43;14.00;99.90
43987;DHT22;29650;47.378;8.300;2023-05-10T05:13:10;14.00;99.90
43987;DHT22;29650;47.378;8.300;2023-05-10T05:15:39;14.00;99.90
43987;DHT22;29650;47.378;8.300;2023-05-10T05:18:06;14.10;99.90
43987;DHT22;29650;47.378;8.300;2023-05-10T05:20:33;14.10;99.90
43987;DHT22;29650;47.378;8.300;2023-05-10T05:23:00;14.00;99.90
43987;DHT22;29650;47.378;8.300;2023-05-10T05:25:27;14.00;99.90
43987;DHT22;29650;47.378;8.300;2023-05-10T05:27:55;14.00;99.90
43987;DHT22;29650;47.378;8.300;2023-05-10T05:30:22;13.80;99.90
43987;DHT22;29650;47.378;8.300;2023-05-10T05:32:49;13.70;99.90
43987;DHT22;29650;47.378;8.300;2023-05-10T05:35:16;13.70;99.90
43987;DHT22;29650;47.378;8.300;2023-05-10T05:37:43;13.90;99.90
43987;DHT22;29650;47.378;8.300;2023-05-10T05:40:12;13.90;99.90
43987;DHT22;29650;47.378;8.300;2023-05-10T05:42:39;13.70;99.90
43987;DHT22;29650;47.378;8.300;2023-05-10T05:45:09;13.60;99.90
43987;DHT22;29650;47.378;8.300;2023-05-10T05:47:38;13.70;99.90
43987;DHT22;29650;47.378;8.300;2023-05-10T05:50:06;13.60;99.90
43987;DHT22;29650;47.378;8.300;2023-05-10T05:52:33;13.60;99.90
43987;DHT22;29650;47.378;8.300;2023-05-10T05:55:00;13.60;99.90
43987;DHT22;29650;47.378;8.300;2023-05-10T05:57:27;13.60;99.90
43987;DHT22;29650;47.378;8.300;2023-05-10T05:59:54;13.40;99.90
43987;DHT22;29650;47.378;8.300;2023-05-10T06:02:23;13.60;99.90
43987;DHT22;29650;47.378;8.300;2023-05-10T06:04:50;13.40;99.90
43987;DHT22;29650;47.378;8.300;2023-05-10T06:07:17;13.70;99.90
43987;DHT22;29650;47.378;8.300;2023-05-10T06:09:44;13.80;99.90
43987;DHT22;29650;47.378;8.300;2023-05-10T06:12:11;13.60;99.90
43987;DHT22;29650;47.378;8.300;2023-05-10T06:14:38;13.50;99.90
43987;DHT22;29650;47.378;8.300;2023-05-10T06:17:06;13.60;99.90
43987;DHT22;29650;47.378;8.300;2023-05-10T06:19:34;13.60;99.90
43987;DHT22;29650;47.378;8.300;2023-05-10T06:22:02;13.50;99.90
43987;DHT22;29650;47.378;8.300;2023-05-10T06:24:29;13.50;99.90
43987;DHT22;29650;47.378;8.300;2023-05-10T06:26:57;12.60;99.90
43987;DHT22;29650;47.378;8.300;2023-05-10T06:29:25;12.60;99.90
43987;DHT22;29650;47.378;8.300;2023-05-10T06:31:52;13.60;99.90
43987;DHT22;29650;47.378;8.300;2023-05-10T06:34:22;13.40;99.90
43987;DHT22;29650;47.378;8.300;2023-05-10T06:36:50;13.60;99.90
43987;DHT22;29650;47.378;8.300;2023-05-10T06:39:17;13.60;99.90
43987;DHT22;29650;47.378;8.300;2023-05-10T06:41:44;13.50;99.90
43987;DHT22;29650;47.378;8.300;2023-05-10T06:44:11;13.70;99.90
43987;DHT22;29650;47.378;8.300;2023-05-10T06:46:39;13.40;99.90
43987;DHT22;29650;47.378;8.300;2023-05-10T06:49:07;13.50;99.90
43987;DHT22;29650;47.378;8.300;2023-05-10T06:51:34;13.30;99.90
43987;DHT22;29650;47.378;8.300;2023-05-10T06:54:03;13.30;99.90
43987;DHT22;29650;47.378;8.300;2023-05-10T06:56:30;13.30;99.90
43987;DHT22;29650;47.378;8.300;2023-05-10T06:58:57;13.50;99.90
43987;DHT22;29650;47.378;8.300;2023-05-10T07:01:24;13.70;99.90
43987;DHT22;29650;47.378;8.300;2023-05-10T07:03:51;13.80;99.90
43987;DHT22;29650;47.378;8.300;2023-05-10T07:06:18;13.70;99.90
43987;DHT22;29650;47.378;8.300;2023-05-10T07:08:45;13.80;99.90
43987;DHT22;29650;47.378;8.300;2023-05-10T07:11:14;13.60;99.90
43987;DHT22;29650;47.378;8.300;2023-05-10T07:13:41;13.50;99.90
43987;DHT22;29650;47.378;8.300;2023-05-10T07:16:09;13.60;99.90
43987;DHT22;29650;47.378;8.300;2023-05-10T07:18:36;13.50;99.90
43987;DHT22;29650;47.378;8.300;2023-05-10T07:21:04;13.30;99.90
43987;DHT22;29650;47.378;8.300;2023-05-10T07:23:31;13.30;99.90
43987;DHT22;29650;47.378;8.300;2023-05-10T07:25:58;13.40;99.90
43987;DHT22;29650;47.378;8.300;2023-05-10T07:28:27;13.50;99.90
43987;DHT22;29650;47.378;8.300;2023-05-10T07:31:04;13.60;99.90
43987;DHT22;29650;47.378;8.300;2023-05-10T07:33:31;13.50;99.90
43987;DHT22;29650;47.378;8.300;2023-05-10T07:35:58;13.50;99.90
43987;DHT22;29650;47.378;8.300;2023-05-10T07:38:29;13.80;99.90
43987;DHT22;29650;47.378;8.300;2023-05-10T07:40:56;13.80;99.90
43987;DHT22;29650;47.378;8.300;2023-05-10T07:43:23;13.80;99.90
43987;DHT22;29650;47.378;8.300;2023-05-10T07:45:52;14.10;99.90
43987;DHT22;29650;47.378;8.300;2023-05-10T07:48:19;14.30;99.90
43987;DHT22;29650;47.378;8.300;2023-05-10T07:50:48;14.20;99.90
43987;DHT22;29650;47.378;8.300;2023-05-10T07:53:16;14.00;99.90
43987;DHT22;29650;47.378;8.300;2023-05-10T07:55:44;14.00;99.90
43987;DHT22;29650;47.378;8.300;2023-05-10T07:58:11;13.90;99.90
43987;DHT22;29650;47.378;8.300;2023-05-10T08:00:38;13.90;99.90
43987;DHT22;29650;47.378;8.300;2023-05-10T08:03:08;14.00;99.90
43987;DHT22;29650;47.378;8.300;2023-05-10T08:05:35;14.10;99.90
43987;DHT22;29650;47.378;8.300;2023-05-10T08:08:02;14.10;99.90
43987;DHT22;29650;47.378;8.300;2023-05-10T08:10:29;14.10;99.90
43987;DHT22;29650;47.378;8.300;2023-05-10T08:12:57;13.80;99.90
43987;DHT22;29650;47.378;8.300;2023-05-10T08:15:25;13.60;99.90
43987;DHT22;29650;47.378;8.300;2023-05-10T08:17:52;13.80;99.90
43987;DHT22;29650;47.378;8.300;2023-05-10T08:20:21;14.10;99.90
43987;DHT22;29650;47.378;8.300;2023-05-10T08:22:48;14.00;99.90
43987;DHT22;29650;47.378;8.300;2023-05-10T08:25:15;13.90;99.90
43987;DHT22;29650;47.378;8.300;2023-05-10T08:27:42;14.10;99.90
43987;DHT22;29650;47.378;8.300;2023-05-10T08:30:10;14.00;99.90
43987;DHT22;29650;47.378;8.300;2023-05-10T08:32:37;14.30;99.90
43987;DHT22;29650;47.378;8.300;2023-05-10T08:35:05;14.20;99.90
43987;DHT22;29650;47.378;8.300;2023-05-10T08:37:34;14.00;99.90
43987;DHT22;29650;47.378;8.300;2023-05-10T08:40:01;14.00;99.90
43987;DHT22;29650;47.378;8.300;2023-05-10T08:42:30;14.00;99.90
43987;DHT22;29650;47.378;8.300;2023-05-10T08:45:03;14.20;99.90
43987;DHT22;29650;47.378;8.300;2023-05-10T08:47:30;14.40;99.90
43987;DHT22;29650;47.378;8.300;2023-05-10T08:49:57;14.00;99.90
43987;DHT22;29650;47.378;8.300;2023-05-10T08:52:26;14.20;99.90
43987;DHT22;29650;47.378;8.300;2023-05-10T08:54:56;14.50;99.90
43987;DHT22;29650;47.378;8.300;2023-05-10T08:57:23;14.70;99.90
43987;DHT22;29650;47.378;8.300;2023-05-10T08:59:50;13.90;99.90
43987;DHT22;29650;47.378;8.300;2023-05-10T09:02:18;14.60;99.90
43987;DHT22;29650;47.378;8.300;2023-05-10T09:04:46;14.50;99.90
43987;DHT22;29650;47.378;8.300;2023-05-10T09:07:14;14.50;99.90
43987;DHT22;29650;47.378;8.300;2023-05-10T09:09:42;14.60;99.90
43987;DHT22;29650;47.378;8.300;2023-05-10T09:12:18;14.80;99.90
43987;DHT22;29650;47.378;8.300;2023-05-10T09:14:45;14.70;99.90
43987;DHT22;29650;47.378;8.300;2023-05-10T09:17:13;14.50;99.90
43987;DHT22;29650;47.378;8.300;2023-05-10T09:19:40;14.40;99.90
43987;DHT22;29650;47.378;8.300;2023-05-10T09:22:07;14.30;99.60
43987;DHT22;29650;47.378;8.300;2023-05-10T09:24:35;14.10;99.80
43987;DHT22;29650;47.378;8.300;2023-05-10T09:27:02;14.20;99.30
43987;DHT22;29650;47.378;8.300;2023-05-10T09:29:41;14.40;99.90
43987;DHT22;29650;47.378;8.300;2023-05-10T09:32:08;14.40;97.90
43987;DHT22;29650;47.378;8.300;2023-05-10T09:34:36;14.30;97.90
43987;DHT22;29650;47.378;8.300;2023-05-10T09:37:05;14.50;98.70
43987;DHT22;29650;47.378;8.300;2023-05-10T09:39:35;14.40;95.80
43987;DHT22;29650;47.378;8.300;2023-05-10T09:42:03;14.30;94.60
43987;DHT22;29650;47.378;8.300;2023-05-10T09:44:31;14.30;93.80
43987;DHT22;29650;47.378;8.300;2023-05-10T09:47:00;14.50;94.00
43987;DHT22;29650;47.378;8.300;2023-05-10T09:49:28;14.60;93.80
43987;DHT22;29650;47.378;8.300;2023-05-10T09:52:03;14.40;92.10
43987;DHT22;29650;47.378;8.300;2023-05-10T09:54:31;14.50;91.90
43987;DHT22;29650;47.378;8.300;2023-05-10T09:56:58;14.90;92.80
43987;DHT22;29650;47.378;8.300;2023-05-10T09:59:26;14.90;89.90
43987;DHT22;29650;47.378;8.300;2023-05-10T10:01:54;14.80;85.90
43987;DHT22;29650;47.378;8.300;2023-05-10T10:04:24;14.70;87.00
43987;DHT22;29650;47.378;8.300;2023-05-10T10:07:09;14.90;89.50
43987;DHT22;29650;47.378;8.300;2023-05-10T10:09:36;14.80;87.50
43987;DHT22;29650;47.378;8.300;2023-05-10T10:12:03;14.50;85.50
43987;DHT22;29650;47.378;8.300;2023-05-10T10:14:30;14.60;85.50
43987;DHT22;29650;47.378;8.300;2023-05-10T10:17:00;14.70;85.50
43987;DHT22;29650;47.378;8.300;2023-05-10T10:19:29;15.50;84.10
43987;DHT22;29650;47.378;8.300;2023-05-10T10:21:56;15.80;83.90
43987;DHT22;29650;47.378;8.300;2023-05-10T10:24:24;15.80;82.30
43987;DHT22;29650;47.378;8.300;2023-05-10T10:26:52;15.80;75.30
43987;DHT22;29650;47.378;8.300;2023-05-10T10:29:24;15.30;78.10
43987;DHT22;29650;47.378;8.300;2023-05-10T10:31:57;16.00;80.30
43987;DHT22;29650;47.378;8.300;2023-05-10T10:34:31;15.90;75.90
43987;DHT22;29650;47.378;8.300;2023-05-10T10:37:04;16.20;72.90
43987;DHT22;29650;47.378;8.300;2023-05-10T10:39:32;16.30;73.40
43987;DHT22;29650;47.378;8.300;2023-05-10T10:42:02;15.90;74.50
43987;DHT22;29650;47.378;8.300;2023-05-10T10:44:38;15.50;71.60
43987;DHT22;29650;47.378;8.300;2023-05-10T10:47:21;15.60;73.10
43987;DHT22;29650;47.378;8.300;2023-05-10T10:49:52;15.60;72.50
43987;DHT22;29650;47.378;8.300;2023-05-10T10:52:30;15.70;72.60
43987;DHT22;29650;47.378;8.300;2023-05-10T10:55:00;15.40;70.80
43987;DHT22;29650;47.378;8.300;2023-05-10T10:57:28;15.20;70.80
43987;DHT22;29650;47.378;8.300;2023-05-10T11:00:19;15.50;72.30
43987;DHT22;29650;47.378;8.300;2023-05-10T11:02:47;15.40;69.30
43987;DHT22;29650;47.378;8.300;2023-05-10T11:05:36;15.50;71.70
43987;DHT22;29650;47.378;8.300;2023-05-10T11:08:09;15.40;71.10
43987;DHT22;29650;47.378;8.300;2023-05-10T11:10:36;15.60;71.50
43987;DHT22;29650;47.378;8.300;2023-05-10T11:13:04;16.00;68.70
43987;DHT22;29650;47.378;8.300;2023-05-10T11:15:32;16.60;71.20
43987;DHT22;29650;47.378;8.300;2023-05-10T11:18:01;15.70;66.10
43987;DHT22;29650;47.378;8.300;2023-05-10T11:20:44;15.80;65.20
43987;DHT22;29650;47.378;8.300;2023-05-10T11:23:16;15.80;66.80
43987;DHT22;29650;47.378;8.300;2023-05-10T11:25:44;14.20;65.60
43987;DHT22;29650;47.378;8.300;2023-05-10T11:28:11;15.80;70.90
43987;DHT22;29650;47.378;8.300;2023-05-10T11:30:39;15.90;69.60
43987;DHT22;29650;47.378;8.300;2023-05-10T11:33:07;15.70;68.50
43987;DHT22;29650;47.378;8.300;2023-05-10T11:35:38;14.60;68.40
43987;DHT22;29650;47.378;8.300;2023-05-10T11:38:07;15.90;66.70
43987;DHT22;29650;47.378;8.300;2023-05-10T11:40:35;16.00;66.90
43987;DHT22;29650;47.378;8.300;2023-05-10T11:43:02;16.60;67.60
43987;DHT22;29650;47.378;8.300;2023-05-10T11:45:32;16.70;66.50
43987;DHT22;29650;47.378;8.300;2023-05-10T11:47:59;16.60;63.60
43987;DHT22;29650;47.378;8.300;2023-05-10T11:50:26;16.90;65.50
43987;DHT22;29650;47.378;8.300;2023-05-10T11:52:54;16.80;63.40
43987;DHT22;29650;47.378;8.300;2023-05-10T11:55:23;16.90;64.70
43987;DHT22;29650;47.378;8.300;2023-05-10T11:57:52;16.80;66.70
43987;DHT22;29650;47.378;8.300;2023-05-10T12:00:19;16.80;65.20
43987;DHT22;29650;47.378;8.300;2023-05-10T12:02:46;16.40;62.40
43987;DHT22;29650;47.378;8.300;2023-05-10T12:05:14;16.60;62.20
43987;DHT22;29650;47.378;8.300;2023-05-10T12:07:41;16.60;60.40
43987;DHT22;29650;47.378;8.300;2023-05-10T12:10:09;16.40;61.10
43987;DHT22;29650;47.378;8.300;2023-05-10T12:15:11;16.70;61.90
43987;DHT22;29650;47.378;8.300;2023-05-10T12:17:39;17.00;60.90
43987;DHT22;29650;47.378;8.300;2023-05-10T12:20:16;16.80;60.60
43987;DHT22;29650;47.378;8.300;2023-05-10T12:22:45;16.90;60.80
43987;DHT22;29650;47.378;8.300;2023-05-10T12:25:12;17.10;62.50
43987;DHT22;29650;47.378;8.300;2023-05-10T12:27:41;16.80;60.00
43987;DHT22;29650;47.378;8.300;2023-05-10T12:30:19;16.40;61.10
43987;DHT22;29650;47.378;8.300;2023-05-10T12:32:47;16.60;62.10
43987;DHT22;29650;47.378;8.300;2023-05-10T12:35:14;17.40;60.80
43987;DHT22;29650;47.378;8.300;2023-05-10T12:37:42;17.60;59.20
43987;DHT22;29650;47.378;8.300;2023-05-10T12:40:10;17.50;57.60
43987;DHT22;29650;47.378;8.300;2023-05-10T12:42:38;17.70;61.30
43987;DHT22;29650;47.378;8.300;2023-05-10T12:45:08;16.90;57.40
43987;DHT22;29650;47.378;8.300;2023-05-10T12:47:35;17.00;59.80
43987;DHT22;29650;47.378;8.300;2023-05-10T12:50:03;16.90;58.40
43987;DHT22;29650;47.378;8.300;2023-05-10T12:52:31;16.70;57.60
43987;DHT22;29650;47.378;8.300;2023-05-10T12:54:58;16.90;57.10
43987;DHT22;29650;47.378;8.300;2023-05-10T12:57:25;17.00;57.60
43987;DHT22;29650;47.378;8.300;2023-05-10T12:59:53;16.90;57.80
43987;DHT22;29650;47.378;8.300;2023-05-10T13:02:21;17.20;56.90
43987;DHT22;29650;47.378;8.300;2023-05-10T13:04:49;17.30;56.00
43987;DHT22;29650;47.378;8.300;2023-05-10T13:07:16;17.10;53.70
43987;DHT22;29650;47.378;8.300;2023-05-10T13:09:42;17.70;55.70
43987;DHT22;29650;47.378;8.300;2023-05-10T13:12:10;18.10;54.50
43987;DHT22;29650;47.378;8.300;2023-05-10T13:14:36;17.70;53.40
43987;DHT22;29650;47.378;8.300;2023-05-10T13:17:06;17.90;52.30
43987;DHT22;29650;47.378;8.300;2023-05-10T13:19:34;17.50;53.40
43987;DHT22;29650;47.378;8.300;2023-05-10T13:22:01;17.00;51.40
43987;DHT22;29650;47.378;8.300;2023-05-10T13:24:28;17.10;54.00
43987;DHT22;29650;47.378;8.300;2023-05-10T13:26:55;17.10;54.00
43987;DHT22;29650;47.378;8.300;2023-05-10T13:29:21;16.90;53.50
43987;DHT22;29650;47.378;8.300;2023-05-10T13:31:48;17.00;54.00
43987;DHT22;29650;47.378;8.300;2023-05-10T13:34:15;17.10;57.70
43987;DHT22;29650;47.378;8.300;2023-05-10T13:36:43;17.10;57.10
43987;DHT22;29650;47.378;8.300;2023-05-10T13:39:10;16.70;53.80
43987;DHT22;29650;47.378;8.300;2023-05-10T13:41:38;16.70;53.90
43987;DHT22;29650;47.378;8.300;2023-05-10T13:44:05;16.60;52.70
43987;DHT22;29650;47.378;8.300;2023-05-10T13:46:32;16.60;52.30
43987;DHT22;29650;47.378;8.300;2023-05-10T13:48:58;16.60;53.10
43987;DHT22;29650;47.378;8.300;2023-05-10T13:51:25;16.90;54.20
43987;DHT22;29650;47.378;8.300;2023-05-10T13:53:54;17.10;52.60
43987;DHT22;29650;47.378;8.300;2023-05-10T13:56:21;16.80;51.60
43987;DHT22;29650;47.378;8.300;2023-05-10T13:58:48;17.10;53.60
43987;DHT22;29650;47.378;8.300;2023-05-10T14:01:17;17.00;51.10
43987;DHT22;29650;47.378;8.300;2023-05-10T14:03:45;17.70;53.00
43987;DHT22;29650;47.378;8.300;2023-05-10T14:06:12;18.10;53.40
43987;DHT22;29650;47.378;8.300;2023-05-10T14:08:39;17.90;51.50
43987;DHT22;29650;47.378;8.300;2023-05-10T14:11:07;17.40;52.50
43987;DHT22;29650;47.378;8.300;2023-05-10T14:13:34;17.40;55.00
43987;DHT22;29650;47.378;8.300;2023-05-10T14:16:01;17.00;57.00
43987;DHT22;29650;47.378;8.300;2023-05-10T14:18:28;16.80;58.40
43987;DHT22;29650;47.378;8.300;2023-05-10T14:20:55;16.60;59.10
43987;DHT22;29650;47.378;8.300;2023-05-10T14:23:22;16.70;61.50
43987;DHT22;29650;47.378;8.300;2023-05-10T14:25:50;16.50;62.10
43987;DHT22;29650;47.378;8.300;2023-05-10T14:28:19;16.60;65.10
43987;DHT22;29650;47.378;8.300;2023-05-10T14:30:46;16.70;63.50
43987;DHT22;29650;47.378;8.300;2023-05-10T14:33:13;16.70;66.60
43987;DHT22;29650;47.378;8.300;2023-05-10T14:35:40;16.50;63.60
43987;DHT22;29650;47.378;8.300;2023-05-10T14:38:07;16.30;65.90
43987;DHT22;29650;47.378;8.300;2023-05-10T14:40:34;16.20;63.20
43987;DHT22;29650;47.378;8.300;2023-05-10T14:43:01;16.20;66.00
43987;DHT22;29650;47.378;8.300;2023-05-10T14:45:30;16.20;65.50
43987;DHT22;29650;47.378;8.300;2023-05-10T14:47:57;15.90;65.80
43987;DHT22;29650;47.378;8.300;2023-05-10T14:50:24;15.80;66.20
43987;DHT22;29650;47.378;8.300;2023-05-10T14:52:51;15.70;68.50
43987;DHT22;29650;47.378;8.300;2023-05-10T14:55:18;15.30;70.10
43987;DHT22;29650;47.378;8.300;2023-05-10T14:57:45;15.20;76.00
43987;DHT22;29650;47.378;8.300;2023-05-10T15:00:15;15.10;79.20
43987;DHT22;29650;47.378;8.300;2023-05-10T15:02:46;14.80;85.30
43987;DHT22;29650;47.378;8.300;2023-05-10T15:05:14;14.60;91.40
43987;DHT22;29650;47.378;8.300;2023-05-10T15:07:41;14.10;98.90
43987;DHT22;29650;47.378;8.300;2023-05-10T15:10:09;13.90;99.90
43987;DHT22;29650;47.378;8.300;2023-05-10T15:12:39;14.60;99.90
43987;DHT22;29650;47.378;8.300;2023-05-10T15:15:07;13.10;99.90
43987;DHT22;29650;47.378;8.300;2023-05-10T15:17:34;13.50;99.90
43987;DHT22;29650;47.378;8.300;2023-05-10T15:20:11;13.40;99.90
43987;DHT22;29650;47.378;8.300;2023-05-10T15:22:38;13.30;99.90
43987;DHT22;29650;47.378;8.300;2023-05-10T15:25:07;13.30;99.90
43987;DHT22;29650;47.378;8.300;2023-05-10T15:27:35;13.70;99.90
43987;DHT22;29650;47.378;8.300;2023-05-10T15:30:02;13.90;99.90
43987;DHT22;29650;47.378;8.300;2023-05-10T15:32:36;13.80;99.90
43987;DHT22;29650;47.378;8.300;2023-05-10T15:35:05;13.80;99.90
43987;DHT22;29650;47.378;8.300;2023-05-10T15:37:34;14.20;99.90
43987;DHT22;29650;47.378;8.300;2023-05-10T15:40:01;14.60;99.90
43987;DHT22;29650;47.378;8.300;2023-05-10T15:42:29;14.60;99.90